TimeEST,TemperatureF,Dew PointF,Humidity,Sea Level PressureIn,VisibilityMPH,Wind Direction,Wind SpeedMPH,Gust SpeedMPH,PrecipitationIn,Events,Conditions,WindDirDegrees,DateUTC
12:53 AM,33.1,19.0,56,30.24,10.0,West,5.8,-,N/A,,Clear,280,2013-02-17 05:53:00
1:53 AM,34.0,18.0,52,30.25,10.0,NW,5.8,-,N/A,,Clear,310,2013-02-17 06:53:00
2:53 AM,32.0,19.0,59,30.25,10.0,Calm,Calm,-,N/A,,Clear,0,2013-02-17 07:53:00
3:53 AM,28.9,19.9,69,30.25,10.0,WSW,3.5,-,N/A,,Clear,240,2013-02-17 08:53:00
4:53 AM,26.1,19.0,75,30.27,10.0,Calm,Calm,-,N/A,,Clear,0,2013-02-17 09:53:00
5:53 AM,25.0,18.0,75,30.29,10.0,Calm,Calm,-,N/A,,Clear,0,2013-02-17 10:53:00
6:53 AM,24.1,18.0,77,30.31,10.0,Calm,Calm,-,N/A,,Clear,0,2013-02-17 11:53:00
7:53 AM,26.6,19.4,74,30.33,10.0,Calm,Calm,-,N/A,,Clear,0,2013-02-17 12:53:00
8:53 AM,36.0,23.0,59,30.36,10.0,Calm,Calm,-,N/A,,Clear,0,2013-02-17 13:53:00
9:53 AM,41.0,17.1,38,30.38,10.0,North,6.9,-,N/A,,Clear,360,2013-02-17 14:53:00
10:53 AM,44.1,14.0,30,30.39,10.0,NNW,4.6,-,N/A,,Clear,340,2013-02-17 15:53:00
11:53 AM,46.0,12.0,25,30.38,10.0,NNW,8.1,-,N/A,,Clear,340,2013-02-17 16:53:00
12:53 PM,48.0,10.9,22,30.36,10.0,Variable,5.8,-,N/A,,Clear,0,2013-02-17 17:53:00
1:53 PM,51.1,7.0,17,30.33,10.0,NW,9.2,-,N/A,,Clear,310,2013-02-17 18:53:00
2:53 PM,52.0,3.9,14,30.31,10.0,Variable,3.5,-,N/A,,Clear,0,2013-02-17 19:53:00
3:53 PM,52.0,3.9,14,30.29,10.0,Calm,Calm,-,N/A,,Clear,0,2013-02-17 20:53:00
4:53 PM,54.0,1.9,12,30.29,10.0,WNW,8.1,-,N/A,,Clear,290,2013-02-17 21:53:00
5:53 PM,52.0,5.0,15,30.28,10.0,Calm,Calm,-,N/A,,Clear,0,2013-02-17 22:53:00
6:53 PM,46.0,17.1,31,30.30,10.0,Calm,Calm,-,N/A,,Clear,0,2013-02-17 23:53:00
7:53 PM,41.0,21.9,47,30.32,10.0,Calm,Calm,-,N/A,,Clear,0,2013-02-18 00:53:00
8:53 PM,36.0,23.0,59,30.34,10.0,Calm,Calm,-,N/A,,Clear,0,2013-02-18 01:53:00
9:53 PM,33.1,23.0,66,30.36,10.0,Calm,Calm,-,N/A,,Clear,0,2013-02-18 02:53:00
10:53 PM,32.0,23.0,69,30.37,10.0,Calm,Calm,-,N/A,,Clear,0,2013-02-18 03:53:00